Terminal Aerodrome Forecast
Issued by NWS Nashville, TN

Current Version | Previous Version | Text Only | Print | Product List | Glossary Off
Versions: 1 2 3 4 5 6 7 8 9 10 11 12 13 14 15 16 17 18 19 20 21

000
FTUS44 KOHX 011700
TAFCSV
TAF
KCSV 011720Z 0118/0218 23007G15KT P6SM FEW035
     FM020000 19003KT P6SM SKC
     FM021600 25007G15KT P6SM SCT035=

USA.gov is the U.S. government's official web portal to all federal, state and local government web resources and services.